sensor_id;sensor_type;location;lat;lon;timestamp;temperature;humidity
73750;SHT30;62058;48.406;-4.514;2022-11-20T00:00:50;12.16;92.66
73750;SHT30;62058;48.406;-4.514;2022-11-20T00:03:15;12.18;93.24
73750;SHT30;62058;48.406;-4.514;2022-11-20T00:05:42;12.14;92.93
73750;SHT30;62058;48.406;-4.514;2022-11-20T00:08:07;12.21;92.74
73750;SHT30;62058;48.406;-4.514;2022-11-20T00:10:36;12.26;92.78
73750;SHT30;62058;48.406;-4.514;2022-11-20T00:13:02;12.29;92.19
73750;SHT30;62058;48.406;-4.514;2022-11-20T00:15:27;12.26;92.81
73750;SHT30;62058;48.406;-4.514;2022-11-20T00:17:53;12.26;93.01
73750;SHT30;62058;48.406;-4.514;2022-11-20T00:20:18;12.32;93.05
73750;SHT30;62058;48.406;-4.514;2022-11-20T00:22:44;12.35;93.04
73750;SHT30;62058;48.406;-4.514;2022-11-20T00:25:09;12.33;93.49
73750;SHT30;62058;48.406;-4.514;2022-11-20T00:27:34;12.33;93.58
73750;SHT30;62058;48.406;-4.514;2022-11-20T00:30:00;12.35;94.16
73750;SHT30;62058;48.406;-4.514;2022-11-20T00:32:26;12.39;94.02
73750;SHT30;62058;48.406;-4.514;2022-11-20T00:34:51;12.43;94.20
73750;SHT30;62058;48.406;-4.514;2022-11-20T00:37:16;12.46;93.51
73750;SHT30;62058;48.406;-4.514;2022-11-20T00:39:42;12.46;94.68
73750;SHT30;62058;48.406;-4.514;2022-11-20T00:42:07;12.49;94.54
73750;SHT30;62058;48.406;-4.514;2022-11-20T00:44:32;12.50;94.52
73750;SHT30;62058;48.406;-4.514;2022-11-20T00:46:58;12.55;94.73
73750;SHT30;62058;48.406;-4.514;2022-11-20T00:49:23;12.64;94.15
73750;SHT30;62058;48.406;-4.514;2022-11-20T00:51:49;12.60;95.01
73750;SHT30;62058;48.406;-4.514;2022-11-20T00:54:14;12.64;94.92
73750;SHT30;62058;48.406;-4.514;2022-11-20T00:56:39;12.72;95.38
73750;SHT30;62058;48.406;-4.514;2022-11-20T00:59:05;12.73;95.33
73750;SHT30;62058;48.406;-4.514;2022-11-20T01:01:30;12.73;95.26
73750;SHT30;62058;48.406;-4.514;2022-11-20T01:03:58;12.80;95.10
73750;SHT30;62058;48.406;-4.514;2022-11-20T01:06:26;12.90;95.46
73750;SHT30;62058;48.406;-4.514;2022-11-20T01:08:54;12.86;95.84
73750;SHT30;62058;48.406;-4.514;2022-11-20T01:11:23;12.91;95.89
73750;SHT30;62058;48.406;-4.514;2022-11-20T01:13:51;12.93;96.38
73750;SHT30;62058;48.406;-4.514;2022-11-20T01:16:18;13.00;94.98
73750;SHT30;62058;48.406;-4.514;2022-11-20T01:18:46;13.00;94.96
73750;SHT30;62058;48.406;-4.514;2022-11-20T01:21:15;13.01;94.89
73750;SHT30;62058;48.406;-4.514;2022-11-20T01:23:43;13.03;95.12
73750;SHT30;62058;48.406;-4.514;2022-11-20T01:26:11;13.03;94.63
73750;SHT30;62058;48.406;-4.514;2022-11-20T01:28:37;13.07;94.27
73750;SHT30;62058;48.406;-4.514;2022-11-20T01:31:14;13.10;93.82
73750;SHT30;62058;48.406;-4.514;2022-11-20T01:33:41;13.08;93.10
73750;SHT30;62058;48.406;-4.514;2022-11-20T01:36:07;13.04;92.71
73750;SHT30;62058;48.406;-4.514;2022-11-20T01:38:33;12.99;92.42
73750;SHT30;62058;48.406;-4.514;2022-11-20T01:40:58;12.91;92.21
73750;SHT30;62058;48.406;-4.514;2022-11-20T01:43:24;12.87;92.33
73750;SHT30;62058;48.406;-4.514;2022-11-20T01:46:05;12.90;92.21
73750;SHT30;62058;48.406;-4.514;2022-11-20T01:48:40;12.91;91.51
73750;SHT30;62058;48.406;-4.514;2022-11-20T01:51:13;12.84;91.61
73750;SHT30;62058;48.406;-4.514;2022-11-20T01:53:40;12.83;91.54
73750;SHT30;62058;48.406;-4.514;2022-11-20T01:56:08;12.75;90.92
73750;SHT30;62058;48.406;-4.514;2022-11-20T01:58:38;12.79;91.31
73750;SHT30;62058;48.406;-4.514;2022-11-20T02:01:05;12.70;91.18
73750;SHT30;62058;48.406;-4.514;2022-11-20T02:03:30;12.67;91.18
73750;SHT30;62058;48.406;-4.514;2022-11-20T02:06:31;12.61;91.41
73750;SHT30;62058;48.406;-4.514;2022-11-20T02:08:59;12.55;91.02
73750;SHT30;62058;48.406;-4.514;2022-11-20T02:11:25;12.45;91.65
73750;SHT30;62058;48.406;-4.514;2022-11-20T02:13:50;12.39;91.54
73750;SHT30;62058;48.406;-4.514;2022-11-20T02:18:45;12.30;91.56
73750;SHT30;62058;48.406;-4.514;2022-11-20T02:21:35;12.25;91.43
73750;SHT30;62058;48.406;-4.514;2022-11-20T02:24:12;12.24;91.00
73750;SHT30;62058;48.406;-4.514;2022-11-20T02:26:50;12.14;91.20
73750;SHT30;62058;48.406;-4.514;2022-11-20T02:29:39;12.08;90.76
73750;SHT30;62058;48.406;-4.514;2022-11-20T02:32:06;12.05;90.97
73750;SHT30;62058;48.406;-4.514;2022-11-20T02:34:32;12.01;90.71
73750;SHT30;62058;48.406;-4.514;2022-11-20T02:36:59;12.01;90.66
73750;SHT30;62058;48.406;-4.514;2022-11-20T02:39:27;11.95;90.59
73750;SHT30;62058;48.406;-4.514;2022-11-20T02:41:54;11.92;90.52
73750;SHT30;62058;48.406;-4.514;2022-11-20T02:44:20;11.89;90.71
73750;SHT30;62058;48.406;-4.514;2022-11-20T02:46:46;11.86;90.71
73750;SHT30;62058;48.406;-4.514;2022-11-20T02:49:11;11.82;90.99
73750;SHT30;62058;48.406;-4.514;2022-11-20T02:51:37;11.79;90.76
73750;SHT30;62058;48.406;-4.514;2022-11-20T02:54:03;11.77;90.53
73750;SHT30;62058;48.406;-4.514;2022-11-20T02:56:28;11.78;90.41
73750;SHT30;62058;48.406;-4.514;2022-11-20T02:58:54;11.78;90.55
73750;SHT30;62058;48.406;-4.514;2022-11-20T03:01:19;11.75;90.82
73750;SHT30;62058;48.406;-4.514;2022-11-20T03:03:44;11.75;90.59
73750;SHT30;62058;48.406;-4.514;2022-11-20T03:06:10;11.75;90.87
73750;SHT30;62058;48.406;-4.514;2022-11-20T03:08:36;11.78;90.24
73750;SHT30;62058;48.406;-4.514;2022-11-20T03:11:03;11.77;90.75
73750;SHT30;62058;48.406;-4.514;2022-11-20T03:13:29;11.78;90.49
73750;SHT30;62058;48.406;-4.514;2022-11-20T03:15:54;11.82;90.50
73750;SHT30;62058;48.406;-4.514;2022-11-20T03:18:19;11.88;90.65
73750;SHT30;62058;48.406;-4.514;2022-11-20T03:20:45;11.95;90.64
73750;SHT30;62058;48.406;-4.514;2022-11-20T03:23:10;12.02;90.53
73750;SHT30;62058;48.406;-4.514;2022-11-20T03:25:35;12.05;91.68
73750;SHT30;62058;48.406;-4.514;2022-11-20T03:28:01;11.96;92.05
73750;SHT30;62058;48.406;-4.514;2022-11-20T03:30:26;11.92;92.63
73750;SHT30;62058;48.406;-4.514;2022-11-20T03:32:53;11.88;92.74
73750;SHT30;62058;48.406;-4.514;2022-11-20T03:35:19;11.91;92.88
73750;SHT30;62058;48.406;-4.514;2022-11-20T03:37:44;11.91;92.96
73750;SHT30;62058;48.406;-4.514;2022-11-20T03:40:11;11.86;91.25
73750;SHT30;62058;48.406;-4.514;2022-11-20T03:42:36;11.85;92.53
73750;SHT30;62058;48.406;-4.514;2022-11-20T03:45:11;11.89;92.30
73750;SHT30;62058;48.406;-4.514;2022-11-20T03:47:37;11.94;91.78
73750;SHT30;62058;48.406;-4.514;2022-11-20T03:50:03;11.92;92.15
73750;SHT30;62058;48.406;-4.514;2022-11-20T03:52:29;11.91;92.00
73750;SHT30;62058;48.406;-4.514;2022-11-20T03:54:54;11.94;93.02
73750;SHT30;62058;48.406;-4.514;2022-11-20T03:57:19;11.94;92.70
73750;SHT30;62058;48.406;-4.514;2022-11-20T03:59:45;11.95;93.06
73750;SHT30;62058;48.406;-4.514;2022-11-20T04:02:10;11.92;90.58
73750;SHT30;62058;48.406;-4.514;2022-11-20T04:04:36;11.99;93.07
73750;SHT30;62058;48.406;-4.514;2022-11-20T04:07:02;11.99;92.91
73750;SHT30;62058;48.406;-4.514;2022-11-20T04:09:27;12.01;92.71
73750;SHT30;62058;48.406;-4.514;2022-11-20T04:11:52;12.04;92.83
73750;SHT30;62058;48.406;-4.514;2022-11-20T04:14:18;12.02;88.67
73750;SHT30;62058;48.406;-4.514;2022-11-20T04:16:43;11.89;89.54
73750;SHT30;62058;48.406;-4.514;2022-11-20T04:19:11;11.74;88.42
73750;SHT30;62058;48.406;-4.514;2022-11-20T04:21:37;11.53;87.15
73750;SHT30;62058;48.406;-4.514;2022-11-20T04:24:03;11.37;87.47
73750;SHT30;62058;48.406;-4.514;2022-11-20T04:26:30;11.22;86.65
73750;SHT30;62058;48.406;-4.514;2022-11-20T04:28:56;11.07;88.26
73750;SHT30;62058;48.406;-4.514;2022-11-20T04:31:27;10.95;84.40
73750;SHT30;62058;48.406;-4.514;2022-11-20T04:33:53;10.89;87.19
73750;SHT30;62058;48.406;-4.514;2022-11-20T04:36:23;10.79;84.34
73750;SHT30;62058;48.406;-4.514;2022-11-20T04:38:53;10.77;86.62
73750;SHT30;62058;48.406;-4.514;2022-11-20T04:41:22;10.73;87.31
73750;SHT30;62058;48.406;-4.514;2022-11-20T04:43:49;10.68;86.61
73750;SHT30;62058;48.406;-4.514;2022-11-20T04:46:16;10.69;87.57
73750;SHT30;62058;48.406;-4.514;2022-11-20T04:48:41;10.63;86.44
73750;SHT30;62058;48.406;-4.514;2022-11-20T04:51:07;10.62;85.09
73750;SHT30;62058;48.406;-4.514;2022-11-20T04:53:32;10.65;87.81
73750;SHT30;62058;48.406;-4.514;2022-11-20T04:56:06;10.62;87.17
73750;SHT30;62058;48.406;-4.514;2022-11-20T04:58:33;10.63;87.99
73750;SHT30;62058;48.406;-4.514;2022-11-20T05:01:06;10.65;87.43
73750;SHT30;62058;48.406;-4.514;2022-11-20T05:03:32;10.68;85.04
73750;SHT30;62058;48.406;-4.514;2022-11-20T05:06:02;10.66;84.80
73750;SHT30;62058;48.406;-4.514;2022-11-20T05:08:29;10.66;86.70
73750;SHT30;62058;48.406;-4.514;2022-11-20T05:11:00;10.66;84.28
73750;SHT30;62058;48.406;-4.514;2022-11-20T05:13:26;10.69;84.78
73750;SHT30;62058;48.406;-4.514;2022-11-20T05:15:51;10.72;85.61
73750;SHT30;62058;48.406;-4.514;2022-11-20T05:18:17;10.79;85.64
73750;SHT30;62058;48.406;-4.514;2022-11-20T05:20:42;10.83;86.51
73750;SHT30;62058;48.406;-4.514;2022-11-20T05:23:07;10.82;84.90
73750;SHT30;62058;48.406;-4.514;2022-11-20T05:25:33;10.82;85.01
73750;SHT30;62058;48.406;-4.514;2022-11-20T05:27:58;10.79;87.02
73750;SHT30;62058;48.406;-4.514;2022-11-20T05:30:23;10.80;86.66
73750;SHT30;62058;48.406;-4.514;2022-11-20T05:32:49;10.79;85.82
73750;SHT30;62058;48.406;-4.514;2022-11-20T05:35:14;10.75;86.40
73750;SHT30;62058;48.406;-4.514;2022-11-20T05:37:39;10.71;86.20
73750;SHT30;62058;48.406;-4.514;2022-11-20T05:40:05;10.68;87.08
73750;SHT30;62058;48.406;-4.514;2022-11-20T05:42:31;10.72;85.80
73750;SHT30;62058;48.406;-4.514;2022-11-20T05:44:58;10.72;84.48
73750;SHT30;62058;48.406;-4.514;2022-11-20T05:47:23;10.69;84.07
73750;SHT30;62058;48.406;-4.514;2022-11-20T05:49:49;10.66;85.35
73750;SHT30;62058;48.406;-4.514;2022-11-20T05:52:14;10.63;85.11
73750;SHT30;62058;48.406;-4.514;2022-11-20T05:54:40;10.66;86.12
73750;SHT30;62058;48.406;-4.514;2022-11-20T05:57:05;10.65;85.65
73750;SHT30;62058;48.406;-4.514;2022-11-20T05:59:30;10.62;84.63
73750;SHT30;62058;48.406;-4.514;2022-11-20T06:01:56;10.62;85.46
73750;SHT30;62058;48.406;-4.514;2022-11-20T06:04:21;10.68;85.11
73750;SHT30;62058;48.406;-4.514;2022-11-20T06:06:46;10.63;85.10
73750;SHT30;62058;48.406;-4.514;2022-11-20T06:09:12;10.62;84.46
73750;SHT30;62058;48.406;-4.514;2022-11-20T06:11:37;10.62;85.12
73750;SHT30;62058;48.406;-4.514;2022-11-20T06:14:03;10.61;85.05
73750;SHT30;62058;48.406;-4.514;2022-11-20T06:16:28;10.61;85.78
73750;SHT30;62058;48.406;-4.514;2022-11-20T06:18:54;10.59;86.41
73750;SHT30;62058;48.406;-4.514;2022-11-20T06:21:20;10.66;84.47
73750;SHT30;62058;48.406;-4.514;2022-11-20T06:23:47;10.71;85.39
73750;SHT30;62058;48.406;-4.514;2022-11-20T06:26:17;10.76;83.61
73750;SHT30;62058;48.406;-4.514;2022-11-20T06:28:43;10.80;85.28
73750;SHT30;62058;48.406;-4.514;2022-11-20T06:31:11;10.90;85.00
73750;SHT30;62058;48.406;-4.514;2022-11-20T06:33:37;10.95;85.48
73750;SHT30;62058;48.406;-4.514;2022-11-20T06:36:03;11.02;83.06
73750;SHT30;62058;48.406;-4.514;2022-11-20T06:38:29;11.07;82.86
73750;SHT30;62058;48.406;-4.514;2022-11-20T06:40:55;11.16;83.94
73750;SHT30;62058;48.406;-4.514;2022-11-20T06:43:22;11.19;82.63
73750;SHT30;62058;48.406;-4.514;2022-11-20T06:45:54;11.22;81.86
73750;SHT30;62058;48.406;-4.514;2022-11-20T06:48:20;11.20;81.75
73750;SHT30;62058;48.406;-4.514;2022-11-20T06:50:45;11.16;80.54
73750;SHT30;62058;48.406;-4.514;2022-11-20T06:53:11;11.12;82.46
73750;SHT30;62058;48.406;-4.514;2022-11-20T06:55:36;11.04;80.94
73750;SHT30;62058;48.406;-4.514;2022-11-20T06:58:01;11.02;82.11
73750;SHT30;62058;48.406;-4.514;2022-11-20T07:00:27;11.02;82.28
73750;SHT30;62058;48.406;-4.514;2022-11-20T07:02:52;10.97;81.90
73750;SHT30;62058;48.406;-4.514;2022-11-20T07:05:18;11.04;81.19
73750;SHT30;62058;48.406;-4.514;2022-11-20T07:07:43;11.09;82.31
73750;SHT30;62058;48.406;-4.514;2022-11-20T07:10:09;11.17;82.21
73750;SHT30;62058;48.406;-4.514;2022-11-20T07:12:35;11.16;78.95
73750;SHT30;62058;48.406;-4.514;2022-11-20T07:15:00;11.16;81.20
73750;SHT30;62058;48.406;-4.514;2022-11-20T07:17:27;11.14;81.64
73750;SHT30;62058;48.406;-4.514;2022-11-20T07:19:52;11.17;80.37
73750;SHT30;62058;48.406;-4.514;2022-11-20T07:22:18;11.20;81.03
73750;SHT30;62058;48.406;-4.514;2022-11-20T07:24:43;11.17;80.48
73750;SHT30;62058;48.406;-4.514;2022-11-20T07:27:08;11.14;81.82
73750;SHT30;62058;48.406;-4.514;2022-11-20T07:29:34;11.10;81.49
73750;SHT30;62058;48.406;-4.514;2022-11-20T07:31:59;11.10;82.49
73750;SHT30;62058;48.406;-4.514;2022-11-20T07:34:24;11.12;81.88
73750;SHT30;62058;48.406;-4.514;2022-11-20T07:36:50;11.12;81.34
73750;SHT30;62058;48.406;-4.514;2022-11-20T07:39:15;11.09;82.18
73750;SHT30;62058;48.406;-4.514;2022-11-20T07:41:40;11.10;81.62
73750;SHT30;62058;48.406;-4.514;2022-11-20T07:44:06;11.09;81.62
73750;SHT30;62058;48.406;-4.514;2022-11-20T07:46:31;11.09;81.06
73750;SHT30;62058;48.406;-4.514;2022-11-20T07:48:57;11.10;80.24
73750;SHT30;62058;48.406;-4.514;2022-11-20T07:51:22;11.10;80.69
73750;SHT30;62058;48.406;-4.514;2022-11-20T07:53:50;11.09;79.59
73750;SHT30;62058;48.406;-4.514;2022-11-20T07:56:16;11.07;80.78
73750;SHT30;62058;48.406;-4.514;2022-11-20T07:58:41;11.09;80.65
73750;SHT30;62058;48.406;-4.514;2022-11-20T08:01:07;11.13;79.67
73750;SHT30;62058;48.406;-4.514;2022-11-20T08:03:33;11.17;79.93
73750;SHT30;62058;48.406;-4.514;2022-11-20T08:05:59;11.19;79.89
73750;SHT30;62058;48.406;-4.514;2022-11-20T08:08:28;11.20;79.90
73750;SHT30;62058;48.406;-4.514;2022-11-20T08:10:53;11.23;79.50
73750;SHT30;62058;48.406;-4.514;2022-11-20T08:13:39;11.24;78.72
73750;SHT30;62058;48.406;-4.514;2022-11-20T08:16:23;11.31;79.25
73750;SHT30;62058;48.406;-4.514;2022-11-20T08:18:48;11.34;79.14
73750;SHT30;62058;48.406;-4.514;2022-11-20T08:21:14;11.45;78.88
73750;SHT30;62058;48.406;-4.514;2022-11-20T08:23:40;11.53;79.50
73750;SHT30;62058;48.406;-4.514;2022-11-20T08:26:05;11.63;78.59
73750;SHT30;62058;48.406;-4.514;2022-11-20T08:28:31;11.70;79.09
73750;SHT30;62058;48.406;-4.514;2022-11-20T08:31:00;11.81;78.03
73750;SHT30;62058;48.406;-4.514;2022-11-20T08:33:26;11.92;77.79
73750;SHT30;62058;48.406;-4.514;2022-11-20T08:35:52;12.04;76.95
73750;SHT30;62058;48.406;-4.514;2022-11-20T08:38:17;12.09;77.61
73750;SHT30;62058;48.406;-4.514;2022-11-20T08:40:42;12.11;75.61
73750;SHT30;62058;48.406;-4.514;2022-11-20T08:43:28;12.15;76.13
73750;SHT30;62058;48.406;-4.514;2022-11-20T08:45:56;12.14;77.07
73750;SHT30;62058;48.406;-4.514;2022-11-20T08:48:21;12.14;76.42
73750;SHT30;62058;48.406;-4.514;2022-11-20T08:50:47;12.21;75.06
73750;SHT30;62058;48.406;-4.514;2022-11-20T08:53:12;12.15;74.94
73750;SHT30;62058;48.406;-4.514;2022-11-20T08:55:37;12.16;75.89
73750;SHT30;62058;48.406;-4.514;2022-11-20T08:58:05;12.14;75.97
73750;SHT30;62058;48.406;-4.514;2022-11-20T09:00:30;12.11;76.40
73750;SHT30;62058;48.406;-4.514;2022-11-20T09:02:55;12.06;76.44
73750;SHT30;62058;48.406;-4.514;2022-11-20T09:05:21;12.09;76.96
73750;SHT30;62058;48.406;-4.514;2022-11-20T09:07:46;12.09;77.22
73750;SHT30;62058;48.406;-4.514;2022-11-20T09:10:11;12.16;77.11
73750;SHT30;62058;48.406;-4.514;2022-11-20T09:12:37;12.21;77.03
73750;SHT30;62058;48.406;-4.514;2022-11-20T09:15:02;12.29;76.93
73750;SHT30;62058;48.406;-4.514;2022-11-20T09:17:28;12.39;76.21
73750;SHT30;62058;48.406;-4.514;2022-11-20T09:19:53;12.50;75.11
73750;SHT30;62058;48.406;-4.514;2022-11-20T09:22:18;12.61;76.04
73750;SHT30;62058;48.406;-4.514;2022-11-20T09:24:44;12.81;76.30
73750;SHT30;62058;48.406;-4.514;2022-11-20T09:27:09;13.10;74.57
73750;SHT30;62058;48.406;-4.514;2022-11-20T09:29:34;13.28;74.28
73750;SHT30;62058;48.406;-4.514;2022-11-20T09:32:00;13.47;74.01
73750;SHT30;62058;48.406;-4.514;2022-11-20T09:34:25;13.50;73.16
73750;SHT30;62058;48.406;-4.514;2022-11-20T09:36:51;13.44;73.70
73750;SHT30;62058;48.406;-4.514;2022-11-20T09:39:16;13.37;74.28
73750;SHT30;62058;48.406;-4.514;2022-11-20T09:42:01;13.25;74.28
73750;SHT30;62058;48.406;-4.514;2022-11-20T09:49:50;13.52;74.36
73750;SHT30;62058;48.406;-4.514;2022-11-20T09:52:37;13.58;74.70
73750;SHT30;62058;48.406;-4.514;2022-11-20T09:55:10;13.52;73.82
73750;SHT30;62058;48.406;-4.514;2022-11-20T09:57:39;13.45;74.41
73750;SHT30;62058;48.406;-4.514;2022-11-20T10:00:08;13.42;75.59
73750;SHT30;62058;48.406;-4.514;2022-11-20T10:02:55;13.42;75.31
73750;SHT30;62058;48.406;-4.514;2022-11-20T10:10:47;13.62;74.02
73750;SHT30;62058;48.406;-4.514;2022-11-20T10:24:29;14.03;73.27
73750;SHT30;62058;48.406;-4.514;2022-11-20T10:29:34;14.13;72.11
73750;SHT30;62058;48.406;-4.514;2022-11-20T10:32:14;14.17;70.98
73750;SHT30;62058;48.406;-4.514;2022-11-20T10:34:51;14.13;70.19
73750;SHT30;62058;48.406;-4.514;2022-11-20T10:37:22;14.09;71.12
73750;SHT30;62058;48.406;-4.514;2022-11-20T10:42:30;14.08;71.03
73750;SHT30;62058;48.406;-4.514;2022-11-20T10:47:39;14.13;72.15
73750;SHT30;62058;48.406;-4.514;2022-11-20T10:50:11;14.10;71.83
73750;SHT30;62058;48.406;-4.514;2022-11-20T10:53:19;14.10;70.23
73750;SHT30;62058;48.406;-4.514;2022-11-20T10:56:05;14.16;69.59
73750;SHT30;62058;48.406;-4.514;2022-11-20T11:01:19;14.16;69.88
73750;SHT30;62058;48.406;-4.514;2022-11-20T11:03:49;14.23;68.87
73750;SHT30;62058;48.406;-4.514;2022-11-20T11:06:31;14.29;68.93
73750;SHT30;62058;48.406;-4.514;2022-11-20T11:09:02;14.36;68.75
73750;SHT30;62058;48.406;-4.514;2022-11-20T11:11:32;14.43;69.06
73750;SHT30;62058;48.406;-4.514;2022-11-20T11:14:10;14.50;69.09
73750;SHT30;62058;48.406;-4.514;2022-11-20T11:16:57;14.57;69.79
73750;SHT30;62058;48.406;-4.514;2022-11-20T11:19:23;14.60;68.58
73750;SHT30;62058;48.406;-4.514;2022-11-20T11:21:52;14.61;68.09
73750;SHT30;62058;48.406;-4.514;2022-11-20T11:24:27;14.67;68.22
73750;SHT30;62058;48.406;-4.514;2022-11-20T11:27:01;14.67;67.83
73750;SHT30;62058;48.406;-4.514;2022-11-20T11:29:32;14.66;68.40
73750;SHT30;62058;48.406;-4.514;2022-11-20T11:32:19;14.71;68.19
73750;SHT30;62058;48.406;-4.514;2022-11-20T11:35:02;14.78;68.41
73750;SHT30;62058;48.406;-4.514;2022-11-20T11:37:33;14.83;67.90
73750;SHT30;62058;48.406;-4.514;2022-11-20T11:40:00;14.76;68.00
73750;SHT30;62058;48.406;-4.514;2022-11-20T11:42:27;14.84;67.28
73750;SHT30;62058;48.406;-4.514;2022-11-20T11:44:57;14.87;68.09
73750;SHT30;62058;48.406;-4.514;2022-11-20T11:50:20;15.18;66.45
73750;SHT30;62058;48.406;-4.514;2022-11-20T12:01:36;15.66;65.55
73750;SHT30;62058;48.406;-4.514;2022-11-20T12:04:21;15.80;66.00
73750;SHT30;62058;48.406;-4.514;2022-11-20T12:06:58;15.72;64.45
73750;SHT30;62058;48.406;-4.514;2022-11-20T12:09:35;15.60;64.22
73750;SHT30;62058;48.406;-4.514;2022-11-20T12:12:08;15.49;63.47
73750;SHT30;62058;48.406;-4.514;2022-11-20T12:14:37;15.32;63.20
73750;SHT30;62058;48.406;-4.514;2022-11-20T12:17:04;15.46;62.89
73750;SHT30;62058;48.406;-4.514;2022-11-20T12:19:31;15.62;62.99
73750;SHT30;62058;48.406;-4.514;2022-11-20T12:27:55;16.04;61.02
73750;SHT30;62058;48.406;-4.514;2022-11-20T12:30:22;16.17;61.08
73750;SHT30;62058;48.406;-4.514;2022-11-20T12:33:12;16.20;61.16
73750;SHT30;62058;48.406;-4.514;2022-11-20T12:38:30;16.30;62.27
73750;SHT30;62058;48.406;-4.514;2022-11-20T12:41:15;16.37;62.61
73750;SHT30;62058;48.406;-4.514;2022-11-20T12:44:36;16.28;63.37
73750;SHT30;62058;48.406;-4.514;2022-11-20T12:50:26;16.30;64.15
73750;SHT30;62058;48.406;-4.514;2022-11-20T12:52:57;16.38;65.17
73750;SHT30;62058;48.406;-4.514;2022-11-20T12:55:46;16.38;64.56
73750;SHT30;62058;48.406;-4.514;2022-11-20T13:04:08;15.97;65.51
73750;SHT30;62058;48.406;-4.514;2022-11-20T13:06:39;15.93;65.73
73750;SHT30;62058;48.406;-4.514;2022-11-20T13:09:09;15.99;65.84
73750;SHT30;62058;48.406;-4.514;2022-11-20T13:11:47;16.14;64.98
73750;SHT30;62058;48.406;-4.514;2022-11-20T13:14:33;16.38;64.15
73750;SHT30;62058;48.406;-4.514;2022-11-20T13:17:33;16.61;63.47
73750;SHT30;62058;48.406;-4.514;2022-11-20T13:20:04;16.72;62.63
73750;SHT30;62058;48.406;-4.514;2022-11-20T13:22:47;16.95;62.89
73750;SHT30;62058;48.406;-4.514;2022-11-20T13:25:38;16.91;62.06
73750;SHT30;62058;48.406;-4.514;2022-11-20T13:30:37;16.91;62.44
73750;SHT30;62058;48.406;-4.514;2022-11-20T13:33:34;16.85;62.35
73750;SHT30;62058;48.406;-4.514;2022-11-20T13:36:24;16.79;62.60
73750;SHT30;62058;48.406;-4.514;2022-11-20T13:38:52;16.81;62.90
73750;SHT30;62058;48.406;-4.514;2022-11-20T13:41:26;16.65;62.76
73750;SHT30;62058;48.406;-4.514;2022-11-20T13:44:34;16.50;63.42
73750;SHT30;62058;48.406;-4.514;2022-11-20T13:47:03;16.31;63.68
73750;SHT30;62058;48.406;-4.514;2022-11-20T13:49:39;16.24;64.50
73750;SHT30;62058;48.406;-4.514;2022-11-20T14:00:18;17.01;63.75
73750;SHT30;62058;48.406;-4.514;2022-11-20T14:03:00;17.16;63.54
73750;SHT30;62058;48.406;-4.514;2022-11-20T14:05:27;17.43;63.01
73750;SHT30;62058;48.406;-4.514;2022-11-20T14:07:54;17.47;61.32
73750;SHT30;62058;48.406;-4.514;2022-11-20T14:10:25;17.53;61.40
73750;SHT30;62058;48.406;-4.514;2022-11-20T14:12:52;17.54;61.44
73750;SHT30;62058;48.406;-4.514;2022-11-20T14:15:26;17.40;60.76
73750;SHT30;62058;48.406;-4.514;2022-11-20T14:17:52;17.01;61.76
73750;SHT30;62058;48.406;-4.514;2022-11-20T14:20:17;16.74;62.68
73750;SHT30;62058;48.406;-4.514;2022-11-20T14:22:49;16.52;62.69
73750;SHT30;62058;48.406;-4.514;2022-11-20T14:27:43;16.43;63.47
73750;SHT30;62058;48.406;-4.514;2022-11-20T14:30:15;16.35;64.19
73750;SHT30;62058;48.406;-4.514;2022-11-20T14:32:42;16.37;64.02
73750;SHT30;62058;48.406;-4.514;2022-11-20T14:35:13;16.27;64.51
73750;SHT30;62058;48.406;-4.514;2022-11-20T14:37:40;16.16;65.00
73750;SHT30;62058;48.406;-4.514;2022-11-20T14:40:28;16.13;65.62
73750;SHT30;62058;48.406;-4.514;2022-11-20T14:42:55;16.04;65.30
73750;SHT30;62058;48.406;-4.514;2022-11-20T14:45:21;16.00;66.22
73750;SHT30;62058;48.406;-4.514;2022-11-20T14:47:48;15.91;66.33
73750;SHT30;62058;48.406;-4.514;2022-11-20T14:50:26;15.82;66.52
73750;SHT30;62058;48.406;-4.514;2022-11-20T14:52:57;15.74;67.08
73750;SHT30;62058;48.406;-4.514;2022-11-20T14:55:36;15.74;67.00
73750;SHT30;62058;48.406;-4.514;2022-11-20T14:58:19;15.74;66.79
73750;SHT30;62058;48.406;-4.514;2022-11-20T15:01:04;15.74;67.13
73750;SHT30;62058;48.406;-4.514;2022-11-20T15:03:33;15.69;67.26
73750;SHT30;62058;48.406;-4.514;2022-11-20T15:05:59;15.65;67.14
73750;SHT30;62058;48.406;-4.514;2022-11-20T15:08:25;15.56;67.16
73750;SHT30;62058;48.406;-4.514;2022-11-20T15:10:52;15.50;67.44
73750;SHT30;62058;48.406;-4.514;2022-11-20T15:15:54;15.46;68.06
73750;SHT30;62058;48.406;-4.514;2022-11-20T15:18:27;15.38;68.02
73750;SHT30;62058;48.406;-4.514;2022-11-20T15:20:55;15.42;68.10
73750;SHT30;62058;48.406;-4.514;2022-11-20T15:23:21;15.39;67.88
73750;SHT30;62058;48.406;-4.514;2022-11-20T15:25:47;15.39;68.09
73750;SHT30;62058;48.406;-4.514;2022-11-20T15:28:18;15.29;68.85
73750;SHT30;62058;48.406;-4.514;2022-11-20T15:30:46;15.25;69.10
73750;SHT30;62058;48.406;-4.514;2022-11-20T15:33:12;15.21;69.34
73750;SHT30;62058;48.406;-4.514;2022-11-20T15:35:38;15.18;69.54
73750;SHT30;62058;48.406;-4.514;2022-11-20T15:38:03;15.21;69.61
73750;SHT30;62058;48.406;-4.514;2022-11-20T15:40:28;15.15;69.84
73750;SHT30;62058;48.406;-4.514;2022-11-20T15:42:54;15.18;70.02
73750;SHT30;62058;48.406;-4.514;2022-11-20T15:45:44;15.15;70.10
73750;SHT30;62058;48.406;-4.514;2022-11-20T15:48:24;15.04;70.40
73750;SHT30;62058;48.406;-4.514;2022-11-20T15:53:31;14.92;70.58
73750;SHT30;62058;48.406;-4.514;2022-11-20T15:55:57;14.85;70.57
73750;SHT30;62058;48.406;-4.514;2022-11-20T15:58:22;14.81;70.85
73750;SHT30;62058;48.406;-4.514;2022-11-20T16:00:49;14.77;70.84
73750;SHT30;62058;48.406;-4.514;2022-11-20T16:03:16;14.66;71.26
73750;SHT30;62058;48.406;-4.514;2022-11-20T16:05:42;14.64;71.39
73750;SHT30;62058;48.406;-4.514;2022-11-20T16:08:07;14.57;71.48
73750;SHT30;62058;48.406;-4.514;2022-11-20T16:10:33;14.47;71.80
73750;SHT30;62058;48.406;-4.514;2022-11-20T16:12:58;14.44;71.94
73750;SHT30;62058;48.406;-4.514;2022-11-20T16:15:44;14.38;72.25
73750;SHT30;62058;48.406;-4.514;2022-11-20T16:18:19;14.40;72.22
73750;SHT30;62058;48.406;-4.514;2022-11-20T16:20:47;14.40;72.30
73750;SHT30;62058;48.406;-4.514;2022-11-20T16:23:13;14.38;72.31
73750;SHT30;62058;48.406;-4.514;2022-11-20T16:25:39;14.32;72.47
73750;SHT30;62058;48.406;-4.514;2022-11-20T16:28:04;14.33;72.50
73750;SHT30;62058;48.406;-4.514;2022-11-20T16:30:31;14.34;72.62
73750;SHT30;62058;48.406;-4.514;2022-11-20T16:32:57;14.27;72.66
73750;SHT30;62058;48.406;-4.514;2022-11-20T16:35:23;14.23;72.83
73750;SHT30;62058;48.406;-4.514;2022-11-20T16:37:50;14.24;73.04
73750;SHT30;62058;48.406;-4.514;2022-11-20T16:40:15;14.23;73.21
73750;SHT30;62058;48.406;-4.514;2022-11-20T16:42:41;14.22;73.32
73750;SHT30;62058;48.406;-4.514;2022-11-20T16:45:06;14.19;73.37
73750;SHT30;62058;48.406;-4.514;2022-11-20T16:47:35;14.12;73.63
73750;SHT30;62058;48.406;-4.514;2022-11-20T16:50:01;14.17;73.53